Abbot, Maine
Current Conditions -  °F | °C
As of 8:15 PM on Tuesday 21 Oct 2014 (Local Time) from KWVL Reporting Station
Overcast Overcast  
Wind Chill: 38°   Ceiling: 700
Heat Index: 45°   Visibility: 7mi
Dew Point: 39°   Wind: 15mph
Humidity: 81%   Direction: 20°NNE
Pressure: 30.07"   Gusts: 18mph
Location:  44.94°N, 69.7°W
Report Text: KWVL 220015Z 02013G16KT 7SM OVC007 07/04 A3007 RMK AO1
Loading
Personal Weather Stations






























Interactive Weather Map New forecast layout! Learn more

10-Day Weather Forecast

Advertisements
Track Severe Weather on mobile